Time;durP1;ratioP1;P1;durP2;ratioP2;P2;SDS_P1;SDS_P2;PMS_P1;PMS_P2;Temp;Humidity;BMP_temperature;BMP_pressure;BME280_temperature;BME280_humidity;BME280_pressure;Samples;Min_cycle;Max_cycle;Signal;HPM_P1;HPM_P2
2024/03/20 00:01:33;;;;;;;13.68;8.88;;;;;;;7.98;100.00;101862.13;6143051;23;20014;-77
2024/03/20 00:03:59;;;;;;;13.60;8.60;;;;;;;7.94;100.00;101859.91;6066011;23;20029;-72
2024/03/20 00:06:25;;;;;;;15.20;10.32;;;;;;;7.97;100.00;101863.16;6110377;23;20025;-72
2024/03/20 00:08:51;;;;;;;14.02;9.13;;;;;;;7.98;100.00;101870.94;6086564;23;20635;-72
2024/03/20 00:11:17;;;;;;;12.32;8.38;;;;;;;7.97;100.00;101860.50;6113556;23;20021;-72
2024/03/20 00:13:44;;;;;;;16.13;9.65;;;;;;;7.96;100.00;101864.19;6087225;23;20016;-72
2024/03/20 00:16:10;;;;;;;17.02;9.85;;;;;;;7.93;100.00;101860.97;6067130;23;20023;-71
2024/03/20 00:18:36;;;;;;;14.55;9.55;;;;;;;7.91;100.00;101852.34;6089034;23;20826;-71
2024/03/20 00:21:02;;;;;;;13.85;8.23;;;;;;;7.92;100.00;101846.00;6117374;23;20013;-71
2024/03/20 00:23:28;;;;;;;14.00;9.70;;;;;;;7.92;100.00;101847.81;6116101;23;20084;-72
2024/03/20 00:25:54;;;;;;;;;;;;;;;7.93;100.00;101854.81;6068584;23;20022;-73
2024/03/20 00:28:20;;;;;;;14.15;9.10;;;;;;;7.92;100.00;101847.81;6086743;23;19960;-72
2024/03/20 00:30:46;;;;;;;14.10;9.32;;;;;;;7.92;100.00;101853.16;6089123;23;20047;-71
2024/03/20 00:33:12;;;;;;;;;;;;;;;7.91;100.00;101847.00;6066315;23;20125;-72
2024/03/20 00:35:37;;;;;;;12.88;8.38;;;;;;;7.89;100.00;101849.09;6090199;23;19936;-72
2024/03/20 00:38:04;;;;;;;13.77;9.20;;;;;;;7.88;100.00;101842.13;6115933;23;20815;-71
2024/03/20 00:40:30;;;;;;;;;;;;;;;7.90;100.00;101847.25;6116781;23;20014;-72
2024/03/20 00:42:56;;;;;;;16.48;8.68;;;;;;;7.87;100.00;101843.19;6090670;23;19932;-71
2024/03/20 00:45:21;;;;;;;;;;;;;;;7.88;100.00;101847.47;6067225;23;20025;-72
2024/03/20 00:47:47;;;;;;;13.15;9.30;;;;;;;7.86;100.00;101854.09;6066229;23;20024;-72
2024/03/20 00:50:13;;;;;;;13.27;8.90;;;;;;;7.84;100.00;101846.28;6091007;23;20336;-72
2024/03/20 00:52:38;;;;;;;13.60;8.77;;;;;;;7.83;100.00;101847.31;6065810;23;20447;-72
2024/03/20 00:55:05;;;;;;;12.65;9.57;;;;;;;7.84;100.00;101840.13;6066761;23;20017;-71
2024/03/20 00:57:30;;;;;;;;;;;;;;;7.82;100.00;101845.69;6090185;23;20021;-70
2024/03/20 00:59:57;;;;;;;10.88;7.68;;;;;;;7.81;100.00;101843.25;6116798;23;19912;-71
2024/03/20 01:02:23;;;;;;;14.45;9.07;;;;;;;7.80;100.00;101845.13;6090007;23;20013;-71
2024/03/20 01:04:48;;;;;;;12.23;8.90;;;;;;;7.81;100.00;101841.41;6116461;23;20013;-70
2024/03/20 01:07:14;;;;;;;14.80;9.35;;;;;;;7.80;100.00;101842.44;6116303;23;20017;-71
2024/03/20 01:09:40;;;;;;;13.18;8.63;;;;;;;7.79;100.00;101848.81;6090251;23;20041;-71
2024/03/20 01:12:05;;;;;;;15.20;9.20;;;;;;;7.77;100.00;101840.22;6116080;23;20017;-71
2024/03/20 01:14:31;;;;;;;15.07;9.68;;;;;;;7.77;100.00;101840.22;6064937;23;20073;-71
2024/03/20 01:16:56;;;;;;;13.57;9.02;;;;;;;7.75;100.00;101844.16;6065924;23;20056;-71
2024/03/20 01:19:22;;;;;;;13.95;9.27;;;;;;;7.73;100.00;101844.38;6115757;23;20025;-72
2024/03/20 01:21:47;;;;;;;14.65;9.23;;;;;;;7.76;100.00;101837.78;6090768;23;20010;-72
2024/03/20 01:24:13;;;;;;;12.93;8.70;;;;;;;7.76;100.00;101843.91;6117958;23;20351;-73
2024/03/20 01:26:39;;;;;;;13.20;8.32;;;;;;;7.75;100.00;101836.97;6087984;23;20511;-72
2024/03/20 01:29:05;;;;;;;10.65;7.85;;;;;;;7.73;100.00;101833.72;6088747;23;20035;-71
2024/03/20 01:31:31;;;;;;;13.82;9.40;;;;;;;7.72;100.00;101845.41;6087352;23;20591;-70
2024/03/20 01:33:57;;;;;;;12.43;7.70;;;;;;;7.73;100.00;101844.38;6088538;23;20018;-71
2024/03/20 01:36:23;;;;;;;13.20;8.88;;;;;;;7.71;100.00;101838.44;6087272;23;20104;-71
2024/03/20 01:38:49;;;;;;;;;;;;;;;7.69;100.00;101848.53;6114874;23;20014;-70
2024/03/20 01:41:14;;;;;;;13.90;8.80;;;;;;;7.67;100.00;101831.94;6088669;23;19915;-70
2024/03/20 01:43:40;;;;;;;15.25;8.30;;;;;;;7.67;100.00;101837.28;6088276;23;20443;-70
2024/03/20 01:46:27;;;;;;;14.82;9.30;;;;;;;7.68;100.00;101836.22;6088618;23;20025;-71
2024/03/20 01:48:54;;;;;;;12.38;8.70;;;;;;;7.68;100.00;101840.75;6112707;23;20018;-73
2024/03/20 01:51:20;;;;;;;13.35;8.15;;;;;;;7.68;100.00;101832.75;6064959;23;20014;-72
2024/03/20 01:53:47;;;;;;;14.13;9.70;;;;;;;7.66;100.00;101832.97;6112881;23;20014;-72
2024/03/20 01:56:12;;;;;;;12.25;9.02;;;;;;;7.66;100.00;101838.31;6087849;23;20010;-71
2024/03/20 01:58:38;;;;;;;12.63;9.25;;;;;;;7.66;100.00;101840.97;6062691;23;20154;-71
2024/03/20 02:01:03;;;;;;;14.60;8.70;;;;;;;7.65;100.00;101828.66;6114968;23;20014;-72
2024/03/20 02:03:29;;;;;;;12.77;9.55;;;;;;;7.61;100.00;101830.16;6090162;23;20013;-72
2024/03/20 02:05:55;;;;;;;14.15;8.88;;;;;;;7.58;100.00;101836.75;6066500;23;20076;-73
2024/03/20 02:08:21;;;;;;;15.30;9.90;;;;;;;7.58;100.00;101833.25;6089167;23;20014;-73
2024/03/20 02:10:47;;;;;;;15.65;10.18;;;;;;;7.56;100.00;101836.16;6067298;23;20021;-73
2024/03/20 02:13:12;;;;;;;13.18;10.07;;;;;;;7.55;100.00;101839.06;6090846;23;20021;-72
2024/03/20 02:15:38;;;;;;;14.48;9.88;;;;;;;7.54;100.00;101826.75;6090502;23;20010;-72
2024/03/20 02:18:05;;;;;;;15.85;8.90;;;;;;;7.49;100.00;101822.09;6116614;23;20025;-72
2024/03/20 02:20:31;;;;;;;15.63;8.65;;;;;;;7.49;100.00;101826.59;6089637;23;20364;-72
2024/03/20 02:22:59;;;;;;;13.57;9.35;;;;;;;7.47;100.00;101816.19;6114212;23;20088;-72
2024/03/20 02:25:29;;;;;;;13.32;9.57;;;;;;;7.47;100.00;101818.84;6065405;23;20010;-72
2024/03/20 02:27:56;;;;;;;13.27;9.15;;;;;;;7.50;100.00;101828.22;6116741;23;20461;-72
2024/03/20 02:30:22;;;;;;;14.77;10.25;;;;;;;7.48;100.00;101825.78;6068002;23;20022;-72
2024/03/20 02:32:49;;;;;;;16.02;9.63;;;;;;;7.49;100.00;101827.41;6116565;23;20020;-72
2024/03/20 02:35:15;;;;;;;14.20;9.27;;;;;;;7.49;100.00;101823.94;6066289;23;20029;-73
2024/03/20 02:37:41;;;;;;;15.40;10.48;;;;;;;7.47;100.00;101818.84;6115311;23;20148;-72
2024/03/20 02:40:07;;;;;;;17.45;10.65;;;;;;;7.48;100.00;101817.81;6114946;23;20014;-72
2024/03/20 02:42:34;;;;;;;16.40;10.32;;;;;;;7.49;100.00;101821.28;6041657;23;20017;-72
2024/03/20 02:44:59;;;;;;;;;;;;;;;7.50;100.00;101817.56;6116692;23;20017;-72
2024/03/20 02:47:25;;;;;;;15.02;10.05;;;;;;;7.48;100.00;101811.66;6114618;23;19922;-71
2024/03/20 02:49:53;;;;;;;14.43;9.15;;;;;;;7.49;100.00;101813.28;6063021;23;20028;-72
2024/03/20 02:52:19;;;;;;;16.00;10.52;;;;;;;7.47;100.00;101807.38;6088579;23;20025;-72
2024/03/20 02:54:45;;;;;;;;;;;;;;;7.48;100.00;101806.31;6041466;23;20021;-72
2024/03/20 02:57:11;;;;;;;14.68;9.60;;;;;;;7.48;100.00;101814.31;6114439;23;19976;-73
2024/03/20 02:59:37;;;;;;;;;;;;;;;7.49;100.00;101806.09;6114090;23;20057;-72
2024/03/20 03:02:03;;;;;;;13.43;8.35;;;;;;;7.48;100.00;101811.66;6089398;23;20341;-72
2024/03/20 03:04:28;;;;;;;13.90;8.73;;;;;;;7.47;100.00;101810.03;6083854;23;20018;-72
2024/03/20 03:06:54;;;;;;;13.38;9.57;;;;;;;7.47;100.00;101812.69;6085103;23;20071;-72
2024/03/20 03:09:21;;;;;;;;;;;;;;;7.45;100.00;101804.09;6085575;23;20456;-72
2024/03/20 03:11:47;;;;;;;15.23;9.57;;;;;;;7.44;100.00;101802.47;6060398;23;19920;-72
2024/03/20 03:14:14;;;;;;;15.95;9.85;;;;;;;7.40;100.00;101802.13;6085377;23;20022;-72
2024/03/20 03:16:40;;;;;;;15.15;10.02;;;;;;;7.39;100.00;101803.97;6060699;23;20101;-72
2024/03/20 03:19:07;;;;;;;13.82;9.00;;;;;;;7.36;100.00;101785.75;6083762;23;20047;-72
2024/03/20 03:21:33;;;;;;;12.98;9.35;;;;;;;7.35;100.00;101797.44;6060905;23;20022;-71
2024/03/20 03:23:59;;;;;;;15.23;10.43;;;;;;;7.31;100.00;101804.22;6086756;23;20037;-71
2024/03/20 03:26:25;;;;;;;14.70;9.20;;;;;;;7.29;100.00;101801.00;6084942;23;20473;-70
2024/03/20 03:28:51;;;;;;;14.82;9.43;;;;;;;7.29;100.00;101803.66;6059513;23;20014;-71
2024/03/20 03:31:17;;;;;;;15.65;9.52;;;;;;;7.27;100.00;101804.91;6086651;23;20024;-71
2024/03/20 03:33:43;;;;;;;17.17;10.57;;;;;;;7.23;100.00;101799.22;6085417;23;20014;-71
2024/03/20 03:36:09;;;;;;;14.27;9.15;;;;;;;7.20;100.00;101799.66;6087095;23;20015;-72
2024/03/20 03:38:36;;;;;;;14.25;9.93;;;;;;;7.19;100.00;101803.38;6059417;23;20038;-71
2024/03/20 03:41:02;;;;;;;15.35;9.90;;;;;;;7.16;100.00;101803.78;6082440;23;20041;-72
2024/03/20 03:43:29;;;;;;;16.58;10.70;;;;;;;7.11;100.00;101808.97;6082283;23;20072;-71
2024/03/20 03:45:55;;;;;;;15.18;9.18;;;;;;;7.09;100.00;101809.19;6083905;23;20022;-71
2024/03/20 03:48:21;;;;;;;13.98;9.52;;;;;;;7.07;100.00;101813.94;6084068;23;20037;-71
2024/03/20 03:50:50;;;;;;;13.85;8.95;;;;;;;7.08;100.00;101798.75;6085146;23;20017;-72
2024/03/20 03:53:16;;;;;;;13.05;8.90;;;;;;;7.08;100.00;101809.41;6083993;23;20097;-72
2024/03/20 03:55:42;;;;;;;14.20;9.48;;;;;;;7.05;100.00;101810.69;6084480;23;20025;-71
2024/03/20 03:58:09;;;;;;;13.23;8.95;;;;;;;7.07;100.00;101813.13;6084009;23;20014;-71
2024/03/20 04:00:35;;;;;;;11.98;8.52;;;;;;;7.06;100.00;101817.63;6059132;23;20452;-71
2024/03/20 04:03:02;;;;;;;14.23;8.35;;;;;;;7.07;100.00;101821.09;6082149;23;20864;-72
2024/03/20 04:05:29;;;;;;;12.45;8.88;;;;;;;7.06;100.00;101816.81;6059326;23;20045;-73
2024/03/20 04:07:55;;;;;;;13.65;8.55;;;;;;;7.03;100.00;101809.25;6084755;23;20491;-72
2024/03/20 04:10:21;;;;;;;14.40;9.88;;;;;;;7.03;100.00;101817.25;6083806;23;20014;-73
2024/03/20 04:12:46;;;;;;;13.75;9.82;;;;;;;7.03;100.00;101812.72;6084463;23;20014;-72
2024/03/20 04:15:12;;;;;;;15.10;9.75;;;;;;;7.01;100.00;101812.13;6083808;23;20014;-72
2024/03/20 04:17:39;;;;;;;14.80;10.30;;;;;;;7.02;100.00;101810.28;6107464;23;20032;-72
2024/03/20 04:20:06;;;;;;;15.75;9.73;;;;;;;7.04;100.00;101819.69;6061104;23;20045;-73
2024/03/20 04:22:31;;;;;;;14.15;9.27;;;;;;;7.07;100.00;101813.13;6083155;23;20097;-73
2024/03/20 04:24:57;;;;;;;14.15;9.27;;;;;;;7.06;100.00;101808.81;6086107;23;20018;-73
2024/03/20 04:27:24;;;;;;;12.75;9.10;;;;;;;7.05;100.00;101815.19;6084956;23;20359;-73
2024/03/20 04:29:49;;;;;;;;;;;;;;;7.04;100.00;101802.88;6083978;23;20014;-72
2024/03/20 04:32:15;;;;;;;14.23;8.85;;;;;;;7.04;100.00;101795.69;6107512;23;19916;-72
2024/03/20 04:34:40;;;;;;;15.45;9.15;;;;;;;7.06;100.00;101798.16;6083790;23;20142;-71
2024/03/20 04:37:06;;;;;;;13.00;8.95;;;;;;;7.06;100.00;101806.97;6085613;23;20030;-73
2024/03/20 04:39:35;;;;;;;15.85;10.02;;;;;;;7.06;100.00;101801.66;6058361;23;20029;-74
2024/03/20 04:42:02;;;;;;;13.10;8.73;;;;;;;7.08;100.00;101804.09;6107622;23;20069;-71
2024/03/20 04:44:28;;;;;;;13.82;9.45;;;;;;;7.08;100.00;101801.41;6083713;23;20018;-72
2024/03/20 04:46:54;;;;;;;11.63;7.82;;;;;;;7.08;100.00;101812.06;6082175;23;20460;-72
2024/03/20 04:49:20;;;;;;;12.38;9.27;;;;;;;7.06;100.00;101804.31;6083165;23;20113;-72
2024/03/20 04:51:46;;;;;;;12.23;8.93;;;;;;;7.07;100.00;101807.78;6106369;23;20405;-73
2024/03/20 04:54:13;;;;;;;13.70;9.93;;;;;;;7.04;100.00;101809.03;6058108;23;20535;-72
2024/03/20 04:56:38;;;;;;;14.80;10.27;;;;;;;7.02;100.00;101804.97;6082419;23;20020;-72
2024/03/20 04:59:04;;;;;;;13.20;8.88;;;;;;;7.01;100.00;101812.13;6058007;23;20105;-72
2024/03/20 05:01:30;;;;;;;13.45;9.05;;;;;;;7.00;100.00;101802.53;6087974;23;20018;-73
2024/03/20 05:03:59;;;;;;;14.55;9.65;;;;;;;7.00;100.00;101802.53;6085086;23;20050;-73
2024/03/20 05:06:25;;;;;;;13.10;9.05;;;;;;;7.00;100.00;101815.84;6108734;23;20054;-72
2024/03/20 05:08:51;;;;;;;15.50;10.30;;;;;;;7.01;100.00;101814.00;6085221;23;20018;-72
2024/03/20 05:11:17;;;;;;;14.90;9.07;;;;;;;7.01;100.00;101814.00;6085588;23;20015;-73
2024/03/20 05:13:43;;;;;;;;;;;;;;;7.01;100.00;101824.66;6084856;23;20399;-72
2024/03/20 05:16:08;;;;;;;13.80;8.48;;;;;;;6.99;100.00;101822.22;6084186;23;19913;-72
2024/03/20 05:18:34;;;;;;;12.25;8.25;;;;;;;6.99;100.00;101826.72;6059316;23;20057;-72
2024/03/20 05:21:00;;;;;;;16.42;10.15;;;;;;;6.98;100.00;101815.25;6085689;23;20041;-73
2024/03/20 05:23:25;;;;;;;16.17;10.15;;;;;;;6.96;100.00;101816.50;6106455;23;20032;-71
2024/03/20 05:25:55;;;;;;;19.80;10.50;;;;;;;6.96;100.00;101832.47;6059903;23;20014;-71
2024/03/20 05:28:21;;;;;;;19.30;10.25;;;;;;;6.95;100.00;101836.16;6082296;23;20014;-72
2024/03/20 05:30:51;;;;;;;14.90;10.40;;;;;;;6.94;100.00;101835.34;6085176;23;20018;-70
2024/03/20 05:33:18;;;;;;;16.15;10.63;;;;;;;6.93;100.00;101833.72;6084728;23;20025;-74
2024/03/20 05:35:44;;;;;;;15.13;9.10;;;;;;;6.92;100.00;101842.75;6060670;23;20384;-72
2024/03/20 05:38:10;;;;;;;15.68;10.10;;;;;;;6.91;100.00;101840.28;6060673;23;20465;-72
2024/03/20 05:40:37;;;;;;;18.30;11.60;;;;;;;6.87;100.00;101828.47;6086002;23;20017;-72
2024/03/20 05:43:04;;;;;;;15.35;11.40;;;;;;;6.82;100.00;101827.25;6084170;23;20021;-71
2024/03/20 05:45:30;;;;;;;21.88;11.55;;;;;;;6.84;100.00;101829.69;6086057;23;20015;-71
2024/03/20 05:47:56;;;;;;;18.55;12.07;;;;;;;6.82;100.00;101829.09;6084227;23;20018;-71
2024/03/20 05:50:21;;;;;;;20.42;12.02;;;;;;;6.82;100.00;101837.09;6084733;23;20534;-72
2024/03/20 05:52:47;;;;;;;15.20;10.00;;;;;;;6.83;100.00;101828.88;6084349;23;20691;-71
2024/03/20 05:55:14;;;;;;;18.27;12.05;;;;;;;6.80;100.00;101829.34;6085648;23;20037;-71
2024/03/20 05:57:40;;;;;;;17.17;12.40;;;;;;;6.76;100.00;101829.97;6108233;23;20117;-72
2024/03/20 06:00:15;;;;;;;17.48;11.75;;;;;;;6.77;100.00;101829.78;6086335;23;20716;-71
2024/03/20 06:02:41;;;;;;;19.73;11.88;;;;;;;6.80;100.00;101833.84;6084285;23;20018;-70
2024/03/20 06:05:07;;;;;;;19.90;11.80;;;;;;;6.82;100.00;101835.25;6107344;23;20456;-72
2024/03/20 06:07:33;;;;;;;15.93;11.30;;;;;;;6.83;100.00;101842.19;6113719;23;20024;-71
2024/03/20 06:10:00;;;;;;;17.25;11.43;;;;;;;6.86;100.00;101846.28;6090334;23;20018;-71
2024/03/20 06:12:25;;;;;;;17.55;11.10;;;;;;;6.86;100.00;101840.16;6089721;23;20034;-71
2024/03/20 06:14:54;;;;;;;18.15;11.90;;;;;;;6.87;100.00;101844.44;6065772;23;20025;-72
2024/03/20 06:17:20;;;;;;;18.20;11.18;;;;;;;6.89;100.00;101843.19;6114613;23;20113;-72
2024/03/20 06:19:45;;;;;;;19.08;11.32;;;;;;;6.90;100.00;101838.66;6112594;23;20033;-71
2024/03/20 06:22:12;;;;;;;18.23;11.95;;;;;;;6.91;100.00;101848.28;6113604;23;20526;-71
2024/03/20 06:24:40;;;;;;;18.13;11.60;;;;;;;6.91;100.00;101858.94;6114128;23;20014;-71
2024/03/20 06:27:06;;;;;;;17.27;10.02;;;;;;;6.91;100.00;101850.94;6063346;23;20014;-72
2024/03/20 06:29:32;;;;;;;17.95;11.63;;;;;;;6.92;100.00;101856.06;6064220;23;20033;-73
2024/03/20 06:31:58;;;;;;;19.60;11.63;;;;;;;6.93;100.00;101856.88;6087757;23;20647;-72
2024/03/20 06:34:25;;;;;;;15.45;10.75;;;;;;;6.94;100.00;101862.00;6087753;23;20013;-72
2024/03/20 06:36:53;;;;;;;17.80;10.77;;;;;;;6.93;100.00;101864.88;6060288;23;20017;-72
2024/03/20 06:39:20;;;;;;;16.10;11.52;;;;;;;6.92;100.00;101869.38;6088117;23;20017;-72
2024/03/20 06:41:46;;;;;;;16.55;10.55;;;;;;;6.92;100.00;101868.56;6112243;23;20133;-73
2024/03/20 06:44:14;;;;;;;;;;;;;;;6.95;100.00;101865.47;6115791;23;20018;-71
2024/03/20 06:46:40;;;;;;;18.48;11.88;;;;;;;6.93;100.00;101867.53;6087920;23;20357;-71
2024/03/20 06:49:09;;;;;;;15.85;10.85;;;;;;;6.92;100.00;101861.41;6114638;23;20084;-72
2024/03/20 06:51:36;;;;;;;17.30;11.20;;;;;;;6.92;100.00;101860.59;6088515;23;20022;-71
2024/03/20 06:54:11;;;;;;;16.25;11.05;;;;;;;6.94;100.00;101869.16;6087507;23;20436;-72
2024/03/20 06:56:37;;;;;;;22.80;13.20;;;;;;;6.98;100.00;101868.53;6065025;23;20028;-72
2024/03/20 06:59:03;;;;;;;18.83;11.23;;;;;;;6.98;100.00;101863.19;6113635;23;20411;-71
2024/03/20 07:01:29;;;;;;;15.23;10.07;;;;;;;6.98;100.00;101865.03;6113227;23;20017;-71
2024/03/20 07:03:55;;;;;;;19.88;12.60;;;;;;;7.01;100.00;101868.06;6106745;23;20018;-72
2024/03/20 07:06:20;;;;;;;19.20;12.10;;;;;;;7.01;100.00;101873.41;6080524;23;20026;-72
2024/03/20 07:08:46;;;;;;;16.38;11.15;;;;;;;7.05;100.00;101879.13;6084561;23;20026;-72
2024/03/20 07:11:12;;;;;;;18.83;11.95;;;;;;;7.08;100.00;101881.34;6085440;23;20069;-71
2024/03/20 07:13:39;;;;;;;17.45;12.18;;;;;;;7.07;100.00;101879.72;6059325;23;20097;-72
2024/03/20 07:16:04;;;;;;;19.17;12.45;;;;;;;7.07;100.00;101882.38;6084012;23;20033;-73
2024/03/20 07:18:30;;;;;;;19.45;11.65;;;;;;;7.09;100.00;101886.44;6082076;23;20018;-72
2024/03/20 07:20:56;;;;;;;19.25;12.73;;;;;;;7.09;100.00;101878.44;6058653;23;20007;-71
2024/03/20 07:23:21;;;;;;;20.42;12.65;;;;;;;7.10;100.00;101873.94;6034900;23;20018;-71
2024/03/20 07:25:48;;;;;;;20.48;11.88;;;;;;;7.14;100.00;101877.78;6085134;23;20037;-72
2024/03/20 07:28:13;;;;;;;18.02;10.65;;;;;;;7.18;100.00;101879.00;6084397;23;20088;-72
2024/03/20 07:30:40;;;;;;;18.17;11.55;;;;;;;7.21;100.00;101883.06;6059737;23;20033;-71
2024/03/20 07:33:06;;;;;;;17.58;12.10;;;;;;;7.23;100.00;101879.13;6084008;23;20014;-72
2024/03/20 07:35:44;;;;;;;20.58;12.05;;;;;;;7.25;100.00;101873.63;6059403;23;20018;-72
2024/03/20 07:38:10;;;;;;;17.50;12.02;;;;;;;7.26;100.00;101875.25;6060800;23;20038;-72
2024/03/20 07:40:36;;;;;;;20.10;11.32;;;;;;;7.26;100.00;101868.06;6087048;23;20078;-72
2024/03/20 07:43:02;;;;;;;19.50;11.93;;;;;;;7.33;100.00;101868.81;6060235;23;20104;-72
2024/03/20 07:45:28;;;;;;;20.55;12.30;;;;;;;7.39;100.00;101881.25;6087223;23;20024;-72
2024/03/20 07:47:54;;;;;;;21.80;13.55;;;;;;;7.46;100.00;101875.84;6084604;23;20010;-72
2024/03/20 07:50:20;;;;;;;17.80;12.52;;;;;;;7.51;100.00;101889.31;6061210;23;20090;-71
2024/03/20 07:52:47;;;;;;;18.45;12.65;;;;;;;7.52;100.00;101885.63;6085634;23;20147;-72
2024/03/20 07:55:13;;;;;;;16.92;12.57;;;;;;;7.60;100.00;101900.53;6108764;23;20025;-73
2024/03/20 07:57:38;;;;;;;20.75;11.55;;;;;;;7.64;100.00;101907.03;6084534;23;20014;-73
2024/03/20 08:00:15;;;;;;;19.80;12.95;;;;;;;7.70;100.00;101892.00;6108963;23;20014;-72
2024/03/20 08:02:45;;;;;;;19.40;11.35;;;;;;;7.71;100.00;101894.44;6060820;23;20014;-72
2024/03/20 08:05:14;;;;;;;20.08;12.35;;;;;;;7.70;100.00;101892.00;6060897;23;20018;-72
2024/03/20 08:07:40;;;;;;;18.30;11.88;;;;;;;7.72;100.00;101890.72;6059482;23;20520;-71
2024/03/20 08:10:08;;;;;;;19.85;12.35;;;;;;;7.80;100.00;101905.66;6058376;23;20022;-71
2024/03/20 08:12:36;;;;;;;19.02;11.25;;;;;;;7.83;100.00;101903.31;6058418;23;20030;-72
2024/03/20 08:15:04;;;;;;;17.00;12.07;;;;;;;7.88;100.00;101903.47;6081827;23;20073;-71
2024/03/20 08:17:29;;;;;;;18.92;12.18;;;;;;;7.91;100.00;101908.34;6035021;23;20074;-71
2024/03/20 08:19:56;;;;;;;17.48;12.32;;;;;;;7.94;100.00;101902.59;6059857;23;20022;-71
2024/03/20 08:22:22;;;;;;;20.60;12.95;;;;;;;7.99;100.00;101906.44;6083987;23;20546;-71
2024/03/20 08:24:48;;;;;;;20.77;12.18;;;;;;;8.07;100.00;101911.47;6057883;23;20093;-72
2024/03/20 08:27:13;;;;;;;19.45;12.20;;;;;;;8.10;100.00;101909.16;6034079;23;20018;-72
2024/03/20 08:29:39;;;;;;;20.63;12.35;;;;;;;8.13;100.00;101907.91;6082095;23;20026;-72
2024/03/20 08:32:05;;;;;;;20.55;12.23;;;;;;;8.18;100.00;101911.53;6057154;23;20081;-72
2024/03/20 08:34:31;;;;;;;18.10;11.55;;;;;;;8.18;100.00;101918.72;6058985;23;20014;-72
2024/03/20 08:36:57;;;;;;;19.75;11.70;;;;;;;8.22;100.00;101909.22;6059708;23;20015;-72
2024/03/20 08:39:22;;;;;;;18.38;12.35;;;;;;;8.27;100.00;101901.38;6060495;23;20034;-71
2024/03/20 08:41:48;;;;;;;18.13;11.90;;;;;;;8.29;100.00;101906.47;6035608;23;20113;-72
2024/03/20 08:44:15;;;;;;;18.23;12.23;;;;;;;8.32;100.00;101914.81;6085404;23;20014;-73
2024/03/20 08:46:41;;;;;;;18.30;12.57;;;;;;;8.41;100.00;101921.53;6060584;23;20026;-73
2024/03/20 08:49:09;;;;;;;16.45;11.55;;;;;;;8.51;100.00;101910.28;6086956;23;20014;-72
2024/03/20 08:51:35;;;;;;;20.92;13.77;;;;;;;8.56;100.00;101913.09;6086494;23;20025;-71
2024/03/20 08:54:00;;;;;;;19.50;12.43;;;;;;;8.60;100.00;101897.44;6084847;23;20018;-71
2024/03/20 08:56:26;;;;;;;22.65;12.85;;;;;;;8.70;100.00;101909.19;6058003;23;20344;-72
2024/03/20 08:58:51;;;;;;;19.60;12.18;;;;;;;8.75;100.00;101916.53;6084714;23;20051;-71
2024/03/20 09:01:17;;;;;;;20.13;13.15;;;;;;;8.77;100.00;101906.44;6060158;23;20010;-71
2024/03/20 09:03:43;;;;;;;20.35;12.98;;;;;;;8.83;100.00;101910.84;6039574;23;20448;-72
2024/03/20 09:06:09;;;;;;;17.58;11.73;;;;;;;8.89;100.00;101903.78;6113049;23;20021;-72
2024/03/20 09:08:35;;;;;;;19.35;13.32;;;;;;;8.92;100.00;101909.47;6114972;23;20022;-70
2024/03/20 09:11:01;;;;;;;18.02;12.52;;;;;;;9.01;100.00;101912.63;6116910;23;20392;-72
2024/03/20 09:13:31;;;;;;;19.83;13.70;;;;;;;9.12;100.00;101905.66;6065937;23;20018;-71
2024/03/20 09:15:57;;;;;;;18.92;13.15;;;;;;;9.22;100.00;101905.91;6065382;23;20038;-72
2024/03/20 09:18:23;;;;;;;17.70;11.88;;;;;;;9.31;100.00;101907.19;6114520;23;20089;-72
2024/03/20 09:20:51;;;;;;;21.77;12.52;;;;;;;9.39;100.00;101906.81;6090983;23;20024;-72
2024/03/20 09:23:17;;;;;;;19.55;13.60;;;;;;;9.44;100.00;101901.59;6089113;23;20018;-71
2024/03/20 09:25:44;;;;;;;22.33;13.25;;;;;;;9.54;100.00;101901.00;6089834;23;20017;-71
2024/03/20 09:28:12;;;;;;;22.23;13.25;;;;;;;9.65;100.00;101900.19;6088221;23;20021;-72
2024/03/20 09:30:38;;;;;;;21.38;14.00;;;;;;;9.69;100.00;101900.53;6089035;23;20037;-73
2024/03/20 09:33:04;;;;;;;20.08;14.65;;;;;;;9.79;100.00;101906.09;6113093;23;20057;-72
2024/03/20 09:35:29;;;;;;;24.13;13.20;;;;;;;9.92;100.00;101900.47;6115433;23;20448;-72
2024/03/20 09:37:55;;;;;;;21.83;14.90;;;;;;;10.11;100.00;101909.97;6089444;23;20045;-72
2024/03/20 09:40:25;;;;;;;23.63;15.60;;;;;;;10.23;100.00;101906.44;6115549;23;20037;-72
2024/03/20 09:42:54;;;;;;;20.85;15.07;;;;;;;10.34;100.00;101897.56;6116933;23;20092;-72
2024/03/20 09:45:23;;;;;;;24.40;15.05;;;;;;;10.37;100.00;101902.47;6090849;23;20076;-72
2024/03/20 09:47:51;;;;;;;22.02;14.75;;;;;;;10.42;100.00;101910.56;6116197;23;20080;-73
2024/03/20 09:50:18;;;;;;;24.13;15.00;;;;;;;10.47;100.00;101908.00;6091091;23;20009;-72
2024/03/20 09:52:45;;;;;;;25.45;16.98;;;;;;;10.53;100.00;101904.34;6089618;23;20021;-72
2024/03/20 09:55:14;;;;;;;23.25;15.50;;;;;;;10.68;100.00;101909.16;6089766;23;20018;-72
2024/03/20 09:57:46;;;;;;;25.70;16.27;;;;;;;10.77;100.00;101906.88;6114166;23;20064;-72
2024/03/20 10:00:14;;;;;;;24.33;16.65;;;;;;;10.90;100.00;101906.56;6115852;23;20026;-72
2024/03/20 10:02:44;;;;;;;27.15;16.23;;;;;;;10.97;100.00;101901.88;6089822;23;20028;-72
2024/03/20 10:05:12;;;;;;;27.05;17.83;;;;;;;11.17;100.00;101898.69;6085063;23;20010;-72
2024/03/20 10:07:42;;;;;;;28.40;17.77;;;;;;;11.29;100.00;101895.94;6086695;23;20021;-72
2024/03/20 10:10:12;;;;;;;28.15;17.35;;;;;;;11.38;100.00;101894.44;6087059;23;20014;-73
2024/03/20 10:12:39;;;;;;;27.50;18.15;;;;;;;11.45;100.00;101897.78;6085172;23;20014;-72
2024/03/20 10:15:09;;;;;;;28.63;18.33;;;;;;;11.60;100.00;101900.66;6083437;23;20162;-73
2024/03/20 10:17:36;;;;;;;26.95;16.10;;;;;;;11.76;100.00;101910.53;6085488;23;20239;-73
2024/03/20 10:20:17;;;;;;;25.52;16.92;;;;;;;11.89;100.00;101901.34;6109265;23;20021;-71
2024/03/20 10:22:43;;;;;;;28.95;18.38;;;;;;;12.03;100.00;101894.50;6084632;23;20029;-72
2024/03/20 10:25:16;;;;;;;37.58;21.98;;;;;;;12.19;100.00;101892.84;6084257;23;20022;-73
2024/03/20 10:27:44;;;;;;;33.47;20.45;;;;;;;12.28;100.00;101890.50;6086104;23;20014;-72
2024/03/20 10:30:15;;;;;;;29.10;19.52;;;;;;;12.42;100.00;101888.22;6087058;23;20049;-73
2024/03/20 10:32:46;;;;;;;30.05;18.45;;;;;;;12.49;100.00;101883.44;6085698;23;20367;-73
2024/03/20 10:35:14;;;;;;;29.17;19.83;;;;;;;12.53;100.00;101887.22;6085806;23;20010;-72
2024/03/20 10:37:43;;;;;;;28.83;18.02;;;;;;;12.52;100.00;101882.94;6087756;23;20022;-73
2024/03/20 10:40:15;;;;;;;29.55;20.25;;;;;;;12.60;100.00;101887.88;6111310;23;20089;-73
2024/03/20 10:42:45;;;;;;;28.13;18.17;;;;;;;12.63;100.00;101881.16;6061435;23;20078;-72
2024/03/20 10:45:12;;;;;;;30.48;19.10;;;;;;;12.71;100.00;101881.50;6084008;23;20019;-73
2024/03/20 10:47:41;;;;;;;30.02;19.08;;;;;;;12.78;100.00;101874.03;6060575;23;20046;-72
2024/03/20 10:50:19;;;;;;;28.83;19.42;;;;;;;12.82;100.00;101880.53;6085927;23;20495;-72
2024/03/20 10:52:47;;;;;;;32.97;18.88;;;;;;;12.91;100.00;101882.72;6085775;23;20015;-73
2024/03/20 10:55:18;;;;;;;30.65;21.23;;;;;;;13.04;100.00;101879.59;6060303;23;20053;-72
2024/03/20 10:57:52;;;;;;;30.00;19.00;;;;;;;13.16;100.00;101874.03;6086715;23;20596;-72
2024/03/20 11:00:19;;;;;;;28.02;19.80;;;;;;;13.18;100.00;101882.66;6061703;23;20021;-71
2024/03/20 11:02:46;;;;;;;29.63;19.52;;;;;;;13.18;100.00;101883.47;6062236;23;20042;-72
2024/03/20 11:05:40;;;;;;;31.90;18.85;;;;;;;13.20;100.00;101870.59;6084779;23;20019;-72
2024/03/20 11:08:08;;;;;;;29.48;19.08;;;;;;;13.18;100.00;101874.59;6108202;23;20014;-72
2024/03/20 11:10:35;;;;;;;31.23;19.40;;;;;;;13.19;100.00;101868.94;6086885;23;20404;-73
2024/03/20 11:13:04;;;;;;;28.38;20.30;;;;;;;13.33;100.00;101870.13;6085300;23;20105;-72